Time;durP1;ratioP1;P1;durP2;ratioP2;P2;SDS_P1;SDS_P2;PMS_P1;PMS_P2;Temp;Humidity;BMP_temperature;BMP_pressure;BME280_temperature;BME280_humidity;BME280_pressure;Samples;Min_cycle;Max_cycle;Signal;HPM_P1;HPM_P2
2022/04/20 00:05:33;;;;;;;;;1.50;1.50;;;;;;;;2;261077880;261077880;-81
2022/04/20 00:15:01;;;;;;;;;23.50;23.50;;;;;;;;2;288084473;288084473;-81
2022/04/20 00:23:16;;;;;;;;;23.00;18.00;;;;;;;;2;261078036;261078036;-82
2022/04/20 00:32:44;;;;;;;;;33.00;21.00;;;;;;;;2;288085333;288085333;-81
2022/04/20 00:40:59;;;;;;;;;25.50;20.00;;;;;;;;2;261077829;261077829;-81
2022/04/20 00:50:27;;;;;;;;;21.50;21.50;;;;;;;;2;288083949;288083949;-81
2022/04/20 00:58:43;;;;;;;;;22.00;22.00;;;;;;;;2;261075540;261075540;-81
2022/04/20 01:08:10;;;;;;;;;19.50;19.50;;;;;;;;2;288084147;288084147;-82
2022/04/20 01:16:26;;;;;;;;;21.50;21.50;;;;;;;;2;261077959;261077959;-82
2022/04/20 01:25:54;;;;;;;;;33.00;24.50;;;;;;;;2;288085053;288085053;-82
2022/04/20 01:34:09;;;;;;;;;26.50;23.50;;;;;;;;2;261078686;261078686;-81
2022/04/20 01:43:36;;;;;;;;;36.00;26.50;;;;;;;;2;288083432;288083432;-81
2022/04/20 01:51:52;;;;;;;;;17.50;17.50;;;;;;;;2;261077774;261077774;-80
2022/04/20 02:09:54;;;;;;;;;24.00;24.00;;;;;;;;2;261076266;261076266;-81
2022/04/20 02:19:21;;;;;;;;;46.50;33.00;;;;;;;;2;288082098;288082098;-80
2022/04/20 02:27:37;;;;;;;;;37.50;31.50;;;;;;;;2;261076947;261076947;-80
2022/04/20 02:37:05;;;;;;;;;32.00;28.50;;;;;;;;2;288084868;288084868;-80
2022/04/20 02:45:20;;;;;;;;;39.00;28.00;;;;;;;;2;261077017;261077017;-80
2022/04/20 02:54:48;;;;;;;;;37.50;31.00;;;;;;;;2;288085609;288085609;-80
2022/04/20 03:03:03;;;;;;;;;31.50;30.50;;;;;;;;2;261077802;261077802;-80
2022/04/20 03:12:31;;;;;;;;;39.00;31.50;;;;;;;;2;288084661;288084661;-80
2022/04/20 03:20:47;;;;;;;;;31.50;31.00;;;;;;;;2;261076037;261076037;-81
2022/04/20 03:30:14;;;;;;;;;34.00;28.00;;;;;;;;2;288084330;288084330;-80
2022/04/20 03:38:30;;;;;;;;;44.00;26.00;;;;;;;;2;261079217;261079217;-80
2022/04/20 03:47:57;;;;;;;;;40.50;28.00;;;;;;;;2;288084121;288084121;-81
2022/04/20 03:56:13;;;;;;;;;44.50;36.50;;;;;;;;2;261078473;261078473;-81
2022/04/20 04:05:40;;;;;;;;;48.00;34.50;;;;;;;;2;288083692;288083692;-81
2022/04/20 04:13:56;;;;;;;;;41.50;37.00;;;;;;;;2;261075616;261075616;-81
2022/04/20 04:23:23;;;;;;;;;41.50;35.50;;;;;;;;2;288081077;288081077;-81
2022/04/20 04:31:42;;;;;;;;;33.00;29.00;;;;;;;;2;261072697;261072697;-81
2022/04/20 04:41:10;;;;;;;;;37.00;34.00;;;;;;;;2;288085910;288085910;-81
2022/04/20 04:49:25;;;;;;;;;30.50;28.50;;;;;;;;2;261075809;261075809;-81
2022/04/20 04:58:53;;;;;;;;;37.50;34.50;;;;;;;;2;288085019;288085019;-81
2022/04/20 05:07:09;;;;;;;;;60.50;37.50;;;;;;;;2;261074616;261074616;-81
2022/04/20 05:16:36;;;;;;;;;37.50;28.50;;;;;;;;2;288083125;288083125;-78
2022/04/20 05:24:52;;;;;;;;;47.50;36.50;;;;;;;;2;261079947;261079947;-81
2022/04/20 05:34:19;;;;;;;;;59.00;40.00;;;;;;;;2;288082194;288082194;-79
2022/04/20 05:42:35;;;;;;;;;56.00;40.00;;;;;;;;2;261077405;261077405;-80
2022/04/20 05:52:02;;;;;;;;;41.50;33.50;;;;;;;;2;288085608;288085608;-80
2022/04/20 06:00:18;;;;;;;;;68.50;40.00;;;;;;;;2;261077847;261077847;-77
2022/04/20 06:09:45;;;;;;;;;46.50;25.50;;;;;;;;2;288085369;288085369;-76
2022/04/20 06:18:01;;;;;;;;;46.50;38.50;;;;;;;;2;261080725;261080725;-75
2022/04/20 06:27:30;;;;;;;;;47.00;37.50;;;;;;;;2;288082574;288082574;-76
2022/04/20 06:35:46;;;;;;;;;41.00;34.00;;;;;;;;2;261076644;261076644;-76
2022/04/20 06:45:14;;;;;;;;;49.50;32.50;;;;;;;;2;288084994;288084994;-78
2022/04/20 07:03:16;;;;;;;;;58.50;42.50;;;;;;;;2;288087282;288087282;-76
2022/04/20 07:11:32;;;;;;;;;46.00;38.00;;;;;;;;2;261083988;261083988;-76
2022/04/20 07:20:59;;;;;;;;;54.00;41.50;;;;;;;;2;288086317;288086317;-76
2022/04/20 07:29:15;;;;;;;;;62.50;40.50;;;;;;;;2;261074586;261074586;-76
2022/04/20 07:38:46;;;;;;;;;42.00;37.00;;;;;;;;2;288083707;288083707;-76
2022/04/20 07:47:01;;;;;;;;;50.00;38.50;;;;;;;;2;261083586;261083586;-77
2022/04/20 07:56:29;;;;;;;;;44.50;36.50;;;;;;;;2;288084654;288084654;-76
2022/04/20 08:04:44;;;;;;;;;34.50;31.50;;;;;;;;2;261075920;261075920;-76
2022/04/20 08:14:13;;;;;;;;;41.50;30.00;;;;;;;;2;288085240;288085240;-77
2022/04/20 08:22:29;;;;;;;;;16.00;16.00;;;;;;;;2;261078811;261078811;-77
2022/04/20 08:31:56;;;;;;;;;27.00;16.50;;;;;;;;2;288082724;288082724;-76
2022/04/20 08:40:12;;;;;;;;;24.00;16.00;;;;;;;;2;261076089;261076089;-76
2022/04/20 08:49:43;;;;;;;;;28.50;21.50;;;;;;;;2;288088335;288088335;-76
2022/04/20 08:57:59;;;;;;;;;22.00;22.00;;;;;;;;2;261077638;261077638;-76
2022/04/20 09:07:27;;;;;;;;;29.50;29.00;;;;;;;;2;288083581;288083581;-76
2022/04/20 09:15:43;;;;;;;;;31.00;26.00;;;;;;;;2;261074776;261074776;-76
2022/04/20 09:25:11;;;;;;;;;16.00;16.00;;;;;;;;2;288085672;288085672;-76
2022/04/20 09:33:50;;;;;;;;;24.00;18.50;;;;;;;;2;261075999;261075999;-77
2022/04/20 09:43:19;;;;;;;;;32.50;30.50;;;;;;;;2;288088376;288088376;-77
2022/04/20 09:51:41;;;;;;;;;33.00;28.00;;;;;;;;2;261081523;261081523;-77
2022/04/20 10:01:23;;;;;;;;;17.50;17.50;;;;;;;;2;288081212;288081212;-75
2022/04/20 10:09:38;;;;;;;;;20.50;20.50;;;;;;;;2;261077254;261077254;-75
2022/04/20 10:19:07;;;;;;;;;14.50;14.50;;;;;;;;2;288083342;288083342;-75
2022/04/20 10:27:43;;;;;;;;;24.50;24.50;;;;;;;;2;261080264;261080264;-75
2022/04/20 10:37:15;;;;;;;;;17.00;13.00;;;;;;;;2;288085046;288085046;-75
2022/04/20 10:45:34;;;;;;;;;14.00;14.00;;;;;;;;2;261089394;261089394;-75
2022/04/20 10:55:04;;;;;;;;;7.00;7.00;;;;;;;;2;288094038;288094038;-75
2022/04/20 11:03:21;;;;;;;;;16.00;12.50;;;;;;;;2;261076282;261076282;-80
2022/04/20 11:21:23;;;;;;;;;12.50;12.50;;;;;;;;2;261075698;261075698;-75
2022/04/20 11:30:51;;;;;;;;;11.00;11.00;;;;;;;;2;288085273;288085273;-76
2022/04/20 11:39:06;;;;;;;;;5.50;5.50;;;;;;;;2;261079048;261079048;-75
2022/04/20 11:48:37;;;;;;;;;14.50;12.50;;;;;;;;2;288083982;288083982;-75
2022/04/20 11:56:53;;;;;;;;;4.50;4.50;;;;;;;;2;261081163;261081163;-76
2022/04/20 12:06:23;;;;;;;;;7.50;7.50;;;;;;;;2;288082701;288082701;-75
2022/04/20 12:14:40;;;;;;;;;16.00;7.00;;;;;;;;2;261076752;261076752;-76
2022/04/20 12:24:08;;;;;;;;;3.50;3.50;;;;;;;;2;288085600;288085600;-76
2022/04/20 12:32:24;;;;;;;;;10.50;10.50;;;;;;;;2;261077760;261077760;-75
2022/04/20 12:42:04;;;;;;;;;7.00;7.00;;;;;;;;2;288088621;288088621;-76
2022/04/20 12:50:21;;;;;;;;;14.50;14.50;;;;;;;;2;261075881;261075881;-75
2022/04/20 13:08:23;;;;;;;;;13.50;13.50;;;;;;;;2;261077750;261077750;-75
2022/04/20 13:17:51;;;;;;;;;25.50;25.50;;;;;;;;2;288083933;288083933;-75
2022/04/20 13:35:55;;;;;;;;;27.50;27.00;;;;;;;;2;288084626;288084626;-75
2022/04/20 13:44:11;;;;;;;;;17.50;17.50;;;;;;;;2;261076018;261076018;-76
2022/04/20 13:53:38;;;;;;;;;15.00;15.00;;;;;;;;2;288082547;288082547;-75
2022/04/20 14:01:54;;;;;;;;;13.50;13.50;;;;;;;;2;261079067;261079067;-81
2022/04/20 14:11:21;;;;;;;;;19.50;19.50;;;;;;;;2;288084624;288084624;-77
2022/04/20 14:19:42;;;;;;;;;4.50;4.50;;;;;;;;2;261077664;261077664;-76
2022/04/20 14:37:43;;;;;;;;;15.00;15.00;;;;;;;;2;261074199;261074199;-76
2022/04/20 14:47:13;;;;;;;;;16.50;16.50;;;;;;;;2;288085536;288085536;-76
2022/04/20 14:55:30;;;;;;;;;14.50;14.50;;;;;;;;2;261075104;261075104;-77
2022/04/20 15:04:57;;;;;;;;;16.00;13.00;;;;;;;;2;288085883;288085883;-77
2022/04/20 15:13:13;;;;;;;;;21.00;21.00;;;;;;;;2;261078464;261078464;-77
2022/04/20 15:22:42;;;;;;;;;17.50;17.50;;;;;;;;2;288081073;288081073;-77
2022/04/20 15:30:57;;;;;;;;;21.00;21.00;;;;;;;;2;261074526;261074526;-78
2022/04/20 15:40:25;;;;;;;;;20.00;20.00;;;;;;;;2;288082637;288082637;-77
2022/04/20 15:48:41;;;;;;;;;19.50;19.50;;;;;;;;2;261076832;261076832;-77
2022/04/20 16:06:43;;;;;;;;;25.50;25.00;;;;;;;;2;261075947;261075947;-77
2022/04/20 16:16:10;;;;;;;;;22.50;22.50;;;;;;;;2;288084112;288084112;-77
2022/04/20 16:24:26;;;;;;;;;29.00;27.50;;;;;;;;2;261078250;261078250;-76
2022/04/20 16:33:53;;;;;;;;;24.50;24.50;;;;;;;;2;288083630;288083630;-76
2022/04/20 16:42:11;;;;;;;;;27.00;26.50;;;;;;;;2;261076125;261076125;-79
2022/04/20 16:51:39;;;;;;;;;31.50;28.00;;;;;;;;2;288085897;288085897;-77
2022/04/20 16:59:54;;;;;;;;;33.50;31.00;;;;;;;;2;261082368;261082368;-78
2022/04/20 17:09:22;;;;;;;;;22.00;22.00;;;;;;;;2;288091617;288091617;-79
2022/04/20 17:17:38;;;;;;;;;27.50;26.50;;;;;;;;2;261077079;261077079;-78
2022/04/20 17:27:05;;;;;;;;;30.00;28.50;;;;;;;;2;288088296;288088296;-78
2022/04/20 17:45:07;;;;;;;;;17.00;17.00;;;;;;;;2;288085748;288085748;-77
2022/04/20 17:53:22;;;;;;;;;13.50;13.50;;;;;;;;2;261078447;261078447;-76
2022/04/20 18:02:51;;;;;;;;;13.50;13.50;;;;;;;;2;288094874;288094874;-77
2022/04/20 18:11:06;;;;;;;;;18.00;18.00;;;;;;;;2;261075491;261075491;-77
2022/04/20 18:20:33;;;;;;;;;13.00;13.00;;;;;;;;2;288082855;288082855;-77
2022/04/20 18:28:49;;;;;;;;;15.50;15.50;;;;;;;;2;261076064;261076064;-79
2022/04/20 18:38:16;;;;;;;;;6.50;6.50;;;;;;;;2;288086237;288086237;-79
2022/04/20 18:46:32;;;;;;;;;6.50;6.50;;;;;;;;2;261080585;261080585;-79
2022/04/20 19:04:47;;;;;;;;;4.00;4.00;;;;;;;;2;261076941;261076941;-79
2022/04/20 19:14:15;;;;;;;;;5.00;5.00;;;;;;;;2;288084084;288084084;-79
2022/04/20 19:22:32;;;;;;;;;7.00;7.00;;;;;;;;2;261079406;261079406;-78
2022/04/20 19:32:00;;;;;;;;;5.50;5.50;;;;;;;;2;288085123;288085123;-78
2022/04/20 19:40:15;;;;;;;;;5.00;5.00;;;;;;;;2;261078082;261078082;-77
2022/04/20 19:49:44;;;;;;;;;19.00;7.00;;;;;;;;2;288084569;288084569;-79
2022/04/20 19:58:00;;;;;;;;;6.50;4.00;;;;;;;;2;261074914;261074914;-79
2022/04/20 20:07:29;;;;;;;;;6.00;6.00;;;;;;;;2;288083599;288083599;-79
2022/04/20 20:15:45;;;;;;;;;11.00;11.00;;;;;;;;2;261076578;261076578;-80
2022/04/20 20:33:48;;;;;;;;;20.50;11.50;;;;;;;;2;261074800;261074800;-78
2022/04/20 20:43:15;;;;;;;;;6.00;6.00;;;;;;;;2;288087917;288087917;-77
2022/04/20 20:51:31;;;;;;;;;6.50;4.50;;;;;;;;2;261074473;261074473;-78
2022/04/20 21:00:59;;;;;;;;;4.50;4.50;;;;;;;;2;288082601;288082601;-77
2022/04/20 21:09:14;;;;;;;;;4.50;4.50;;;;;;;;2;261075288;261075288;-77
2022/04/20 21:18:43;;;;;;;;;4.50;4.50;;;;;;;;2;288082960;288082960;-78
2022/04/20 21:26:59;;;;;;;;;5.00;5.00;;;;;;;;2;261077553;261077553;-77
2022/04/20 21:36:27;;;;;;;;;12.00;7.50;;;;;;;;2;288083997;288083997;-80
2022/04/20 21:44:42;;;;;;;;;8.00;8.00;;;;;;;;2;261077499;261077499;-80
2022/04/20 21:54:10;;;;;;;;;2.50;2.50;;;;;;;;2;288084182;288084182;-79
2022/04/20 22:12:12;;;;;;;;;7.00;7.00;;;;;;;;2;288082245;288082245;-80
2022/04/20 22:20:28;;;;;;;;;19.00;7.00;;;;;;;;2;261078611;261078611;-80
2022/04/20 22:29:56;;;;;;;;;8.50;8.50;;;;;;;;2;288084687;288084687;-80
2022/04/20 22:38:11;;;;;;;;;9.50;9.50;;;;;;;;2;261077594;261077594;-80
2022/04/20 22:47:39;;;;;;;;;8.50;3.00;;;;;;;;2;288087092;288087092;-80
2022/04/20 22:55:55;;;;;;;;;16.00;12.00;;;;;;;;2;261075895;261075895;-79
2022/04/20 23:05:22;;;;;;;;;8.50;6.00;;;;;;;;2;288085310;288085310;-80
2022/04/20 23:13:38;;;;;;;;;12.50;8.50;;;;;;;;2;261079684;261079684;-79
2022/04/20 23:23:06;;;;;;;;;4.50;4.50;;;;;;;;2;288087904;288087904;-79
2022/04/20 23:31:22;;;;;;;;;18.00;9.50;;;;;;;;2;261075394;261075394;-79
2022/04/20 23:40:49;;;;;;;;;16.50;8.00;;;;;;;;2;288084718;288084718;-79
2022/04/20 23:49:05;;;;;;;;;7.00;7.00;;;;;;;;2;261075113;261075113;-79
2022/04/20 23:58:33;;;;;;;;;5.50;5.50;;;;;;;;2;288082656;288082656;-79
